createdAt,value
2018-03-27T00:02:27.242Z,75.28
2018-03-27T00:05:00.856Z,77.28
2018-03-27T00:07:34.438Z,85.68
2018-03-27T00:10:08.178Z,93.45
2018-03-27T00:12:42.477Z,86.22
2018-03-27T00:15:16.111Z,76.95
2018-03-27T00:17:49.693Z,70.75
2018-03-27T00:20:23.242Z,70.80
2018-03-27T00:22:56.786Z,72.12
2018-03-27T00:25:30.404Z,68.40
2018-03-27T00:28:16.029Z,73.75
2018-03-27T00:31:01.501Z,73.82
2018-03-27T00:33:47.107Z,74.68
2018-03-27T00:36:33.342Z,74.25
2018-03-27T00:39:18.979Z,66.22
2018-03-27T00:55:19.736Z,69.87
2018-03-27T00:57:53.458Z,107.40
2018-03-27T01:00:26.993Z,95.43
2018-03-27T01:03:00.742Z,80.57
2018-03-27T01:05:34.339Z,70.68
2018-03-27T01:08:07.908Z,77.07
2018-03-27T01:10:41.629Z,73.55
2018-03-27T01:13:15.166Z,74.93
2018-03-27T01:15:48.751Z,78.10
2018-03-27T01:18:22.318Z,73.95
2018-03-27T01:20:55.867Z,67.82
2018-03-27T01:23:29.502Z,72.45
2018-03-27T01:26:03.132Z,75.37
2018-03-27T01:28:36.734Z,83.55
2018-03-27T01:31:10.334Z,75.90
2018-03-27T01:33:43.867Z,73.07
2018-03-27T01:36:18.205Z,80.50
2018-03-27T01:38:51.836Z,75.37
2018-03-27T01:41:25.407Z,79.82
2018-03-27T01:43:59.781Z,79.03
2018-03-27T01:46:34.107Z,74.57
2018-03-27T01:49:08.519Z,68.07
2018-03-27T01:51:42.221Z,70.05
2018-03-27T01:54:15.958Z,87.22
2018-03-27T01:56:50.119Z,64.80
2018-03-27T01:59:23.811Z,67.68
2018-03-27T02:01:58.149Z,88.03
2018-03-27T02:04:32.669Z,92.30
2018-03-27T02:07:06.264Z,76.80
2018-03-27T02:09:40.529Z,72.20
2018-03-27T02:12:19.926Z,61.78
2018-03-27T02:14:59.274Z,75.47
2018-03-27T02:17:38.690Z,71.22
2018-03-27T02:20:18.864Z,76.10
2018-03-27T02:22:53.226Z,84.20
2018-03-27T02:25:26.911Z,69.87
2018-03-27T02:28:00.650Z,74.25
2018-03-27T02:30:34.267Z,70.22
2018-03-27T02:33:08.601Z,75.12
2018-03-27T02:35:42.910Z,77.18
2018-03-27T02:38:16.628Z,68.82
2018-03-27T02:40:50.321Z,75.68
2018-03-27T02:43:24.042Z,81.57
2018-03-27T02:45:58.339Z,74.62
2018-03-27T02:48:32.080Z,78.20
2018-03-27T02:51:05.696Z,83.82
2018-03-27T02:53:39.439Z,76.00
2018-03-27T02:56:12.989Z,87.03
2018-03-27T02:58:46.555Z,80.53
2018-03-27T03:01:20.189Z,92.50
2018-03-27T03:03:53.762Z,93.10
2018-03-27T03:06:27.359Z,97.62
2018-03-27T03:09:00.896Z,85.22
2018-03-27T03:11:34.453Z,83.05
2018-03-27T03:14:07.980Z,83.93
2018-03-27T03:16:41.546Z,81.22
2018-03-27T03:19:15.040Z,77.03
2018-03-27T03:21:49.372Z,90.72
2018-03-27T03:24:22.888Z,95.47
2018-03-27T03:26:56.592Z,78.57
2018-03-27T03:29:30.178Z,81.70
2018-03-27T03:32:03.772Z,76.60
2018-03-27T03:34:37.377Z,76.93
2018-03-27T03:37:10.965Z,72.53
2018-03-27T03:39:44.546Z,86.72
2018-03-27T03:42:18.167Z,74.93
2018-03-27T03:44:51.821Z,74.65
2018-03-27T03:47:25.297Z,79.93
2018-03-27T03:49:58.907Z,72.25
2018-03-27T03:52:32.487Z,75.78
2018-03-27T03:55:06.791Z,74.25
2018-03-27T03:57:40.401Z,75.03
2018-03-27T04:00:13.927Z,85.82
2018-03-27T04:02:47.489Z,84.30
2018-03-27T04:05:21.067Z,90.03
2018-03-27T04:07:54.605Z,93.57
2018-03-27T04:10:28.177Z,75.60
2018-03-27T04:13:02.507Z,82.65
2018-03-27T04:15:36.212Z,77.35
2018-03-27T04:18:09.817Z,83.20
2018-03-27T04:20:44.157Z,78.72
2018-03-27T04:23:18.593Z,76.20
2018-03-27T04:25:52.973Z,68.07
2018-03-27T04:28:27.483Z,71.32
2018-03-27T04:31:01.100Z,70.43
2018-03-27T04:33:34.675Z,71.28
2018-03-27T04:36:08.196Z,71.05
2018-03-27T04:38:41.798Z,68.15
2018-03-27T04:41:15.380Z,63.30
2018-03-27T04:43:49.723Z,74.20
2018-03-27T04:46:23.539Z,87.30
2018-03-27T04:48:57.331Z,72.32
2018-03-27T04:51:31.118Z,67.22
2018-03-27T04:54:05.410Z,76.25
2018-03-27T04:56:38.982Z,74.07
2018-03-27T04:59:12.542Z,68.37
2018-03-27T05:01:46.132Z,100.93
2018-03-27T05:04:19.738Z,94.93
2018-03-27T05:06:53.346Z,81.18
2018-03-27T05:09:26.946Z,66.15
2018-03-27T05:12:00.564Z,75.12
2018-03-27T05:14:34.266Z,78.03
2018-03-27T05:17:07.815Z,75.95
2018-03-27T05:19:42.105Z,72.45
2018-03-27T05:22:15.666Z,66.40
2018-03-27T05:24:49.317Z,71.22
2018-03-27T05:27:23.074Z,57.50
2018-03-27T05:29:56.643Z,71.25
2018-03-27T05:32:30.164Z,76.22
2018-03-27T05:35:03.888Z,75.65
2018-03-27T05:37:37.473Z,74.90
2018-03-27T05:40:11.058Z,62.65
2018-03-27T05:42:44.563Z,66.78
2018-03-27T05:45:18.885Z,84.97
2018-03-27T05:47:53.407Z,81.57
2018-03-27T05:50:27.002Z,62.72
2018-03-27T05:53:00.758Z,59.03
2018-03-27T05:55:34.311Z,73.97
2018-03-27T05:58:07.878Z,72.72
2018-03-27T06:00:42.333Z,67.50
2018-03-27T06:03:15.882Z,68.15
2018-03-27T06:05:50.771Z,81.07
2018-03-27T06:08:24.371Z,86.43
2018-03-27T06:10:57.991Z,83.62
2018-03-27T06:13:31.570Z,68.68
2018-03-27T06:16:05.071Z,80.30
2018-03-27T06:18:38.684Z,102.20
2018-03-27T06:21:12.210Z,184.95
2018-03-27T06:23:45.757Z,72.03
2018-03-27T06:26:19.475Z,64.20
2018-03-27T06:28:53.037Z,77.57
2018-03-27T06:31:26.573Z,77.85
2018-03-27T06:34:00.093Z,70.10
2018-03-27T06:36:33.762Z,65.68
2018-03-27T06:39:08.103Z,75.55
2018-03-27T06:41:41.594Z,75.35
2018-03-27T06:44:15.370Z,72.18
2018-03-27T06:46:48.979Z,68.22
2018-03-27T06:49:22.602Z,69.53
2018-03-27T06:51:56.187Z,77.57
2018-03-27T06:54:29.791Z,85.95
2018-03-27T06:57:03.375Z,76.57
2018-03-27T06:59:37.716Z,93.40
2018-03-27T07:02:11.384Z,78.93
2018-03-27T07:04:44.899Z,98.97
2018-03-27T07:07:18.412Z,85.07
2018-03-27T07:09:51.926Z,78.05
2018-03-27T07:12:25.516Z,84.65
2018-03-27T07:14:59.114Z,82.07
2018-03-27T07:17:32.677Z,86.75
2018-03-27T07:20:06.244Z,77.43
2018-03-27T07:22:39.809Z,70.15
2018-03-27T07:25:14.125Z,65.65
2018-03-27T07:27:47.885Z,80.45
2018-03-27T07:30:21.436Z,110.18
2018-03-27T07:32:55.230Z,95.07
2018-03-27T07:35:28.771Z,80.10
2018-03-27T07:38:02.338Z,87.50
2018-03-27T07:40:35.922Z,83.60
2018-03-27T07:43:10.290Z,93.10
2018-03-27T07:45:43.966Z,96.90
2018-03-27T07:48:18.374Z,81.53
2018-03-27T07:50:52.097Z,96.97
2018-03-27T07:53:25.669Z,84.40
2018-03-27T07:56:00.007Z,82.80
2018-03-27T07:58:33.715Z,74.72
2018-03-27T08:01:07.299Z,77.80
2018-03-27T08:03:40.824Z,73.32
2018-03-27T08:06:14.400Z,79.93
2018-03-27T08:08:48.107Z,87.12
2018-03-27T08:11:21.697Z,108.97
2018-03-27T08:13:55.294Z,70.97
2018-03-27T08:16:28.856Z,94.10
2018-03-27T08:19:02.506Z,55.60
2018-03-27T08:21:36.020Z,74.40
2018-03-27T08:24:09.784Z,74.93
2018-03-27T08:26:44.014Z,70.85
2018-03-27T08:29:17.652Z,64.95
2018-03-27T08:31:51.225Z,61.20
2018-03-27T08:34:24.839Z,62.03
2018-03-27T08:36:59.229Z,66.47
2018-03-27T08:39:33.663Z,72.05
2018-03-27T08:42:07.406Z,66.03
2018-03-27T08:44:41.692Z,63.17
2018-03-27T08:47:15.383Z,62.60
2018-03-27T08:49:49.705Z,63.35
2018-03-27T08:52:23.424Z,62.28
2018-03-27T08:54:56.957Z,57.78
2018-03-27T08:57:30.602Z,56.78
2018-03-27T09:00:04.106Z,62.55
2018-03-27T09:02:37.689Z,64.72
2018-03-27T09:05:11.320Z,64.37
2018-03-27T09:07:44.886Z,58.92
2018-03-27T09:10:18.456Z,93.72
2018-03-27T09:12:52.132Z,69.57
2018-03-27T09:15:25.678Z,74.50
2018-03-27T09:17:59.348Z,63.50
2018-03-27T09:20:32.945Z,52.25
2018-03-27T09:23:06.528Z,58.42
2018-03-27T09:25:40.227Z,60.25
2018-03-27T09:28:13.831Z,61.40
2018-03-27T09:30:47.337Z,72.32
2018-03-27T09:33:21.647Z,63.80
2018-03-27T09:35:56.152Z,55.00
2018-03-27T09:38:29.759Z,59.88
2018-03-27T09:41:03.445Z,55.17
2018-03-27T09:43:37.039Z,60.72
2018-03-27T09:46:10.583Z,46.85
2018-03-27T09:48:44.159Z,48.45
2018-03-27T09:51:17.648Z,56.60
2018-03-27T09:53:51.282Z,51.37
2018-03-27T09:56:24.997Z,59.42
2018-03-27T09:58:58.658Z,47.53
2018-03-27T10:01:32.168Z,39.75
2018-03-27T10:04:06.492Z,41.63
2018-03-27T10:06:40.094Z,47.40
2018-03-27T10:09:13.687Z,46.05
2018-03-27T10:11:47.229Z,65.07
2018-03-27T10:14:20.806Z,50.50
2018-03-27T10:16:54.378Z,45.60
2018-03-27T10:19:27.927Z,41.95
2018-03-27T10:22:01.519Z,36.63
2018-03-27T10:24:35.219Z,37.90
2018-03-27T10:27:08.750Z,38.53
2018-03-27T10:29:42.265Z,35.05
2018-03-27T10:32:15.879Z,38.47
2018-03-27T10:34:49.419Z,44.70
2018-03-27T10:37:22.986Z,39.53
2018-03-27T10:39:56.586Z,32.60
2018-03-27T10:42:30.133Z,37.72
2018-03-27T10:45:03.737Z,36.10
2018-03-27T10:47:38.195Z,41.03
2018-03-27T10:50:12.281Z,38.35
2018-03-27T10:52:45.822Z,44.85
2018-03-27T10:55:19.389Z,39.78
2018-03-27T10:57:53.011Z,40.38
2018-03-27T11:00:26.603Z,39.50
2018-03-27T11:03:00.213Z,37.60
2018-03-27T11:05:33.733Z,41.08
2018-03-27T11:08:07.219Z,34.95
2018-03-27T11:10:40.856Z,35.80
2018-03-27T11:13:14.504Z,50.25
2018-03-27T11:15:48.785Z,44.25
2018-03-27T11:18:22.353Z,37.47
2018-03-27T11:20:55.889Z,28.80
2018-03-27T11:23:29.390Z,33.40
2018-03-27T11:26:03.758Z,30.40
2018-03-27T11:28:37.426Z,32.70
2018-03-27T11:31:11.763Z,33.05
2018-03-27T11:33:45.331Z,32.53
2018-03-27T11:36:18.862Z,36.95
2018-03-27T11:38:53.196Z,32.55
2018-03-27T11:41:26.890Z,29.45
2018-03-27T11:44:00.483Z,35.60
2018-03-27T11:46:34.043Z,27.70
2018-03-27T11:49:07.619Z,32.60
2018-03-27T11:51:41.161Z,31.58
2018-03-27T11:54:15.511Z,35.67
2018-03-27T11:56:49.138Z,30.35
2018-03-27T11:59:23.517Z,32.45
2018-03-27T12:01:57.372Z,29.20
2018-03-27T12:04:30.922Z,37.05
2018-03-27T12:07:04.474Z,39.85
2018-03-27T12:09:38.024Z,32.28
2018-03-27T12:12:11.638Z,54.10
2018-03-27T12:14:45.248Z,48.50
2018-03-27T12:17:18.783Z,38.28
2018-03-27T12:19:52.356Z,42.38
2018-03-27T12:22:25.955Z,33.95
2018-03-27T12:24:59.560Z,30.98
2018-03-27T12:27:33.070Z,31.35
2018-03-27T12:30:06.616Z,32.58
2018-03-27T12:32:40.155Z,34.05
2018-03-27T12:35:13.714Z,37.35
2018-03-27T12:37:48.055Z,31.60
2018-03-27T12:40:21.687Z,31.23
2018-03-27T12:42:55.245Z,27.73
2018-03-27T12:45:28.835Z,32.85
2018-03-27T12:48:02.370Z,27.58
2018-03-27T12:50:35.960Z,31.35
2018-03-27T12:53:09.539Z,30.15
2018-03-27T12:55:43.150Z,34.03
2018-03-27T12:58:16.738Z,32.25
2018-03-27T13:00:50.335Z,30.02
2018-03-27T13:03:23.974Z,29.73
2018-03-27T13:05:57.559Z,33.65
2018-03-27T13:08:31.100Z,33.30
2018-03-27T13:11:04.657Z,37.35
2018-03-27T13:13:38.256Z,35.50
2018-03-27T13:16:12.583Z,49.40
2018-03-27T13:18:47.008Z,48.20
2018-03-27T13:21:20.673Z,54.95
2018-03-27T13:23:54.418Z,28.92
2018-03-27T13:26:27.924Z,25.50
2018-03-27T13:29:02.214Z,37.53
2018-03-27T13:31:36.844Z,23.55
2018-03-27T13:34:11.152Z,25.17
2018-03-27T13:36:44.809Z,25.00
2018-03-27T13:39:18.369Z,24.90
2018-03-27T13:41:52.064Z,24.15
2018-03-27T13:44:25.654Z,25.98
2018-03-27T13:46:59.991Z,23.35
2018-03-27T13:49:33.490Z,24.45
2018-03-27T13:52:07.099Z,21.70
2018-03-27T13:54:40.610Z,21.00
2018-03-27T13:57:14.201Z,22.50
2018-03-27T13:59:47.797Z,22.15
2018-03-27T14:02:21.521Z,21.85
2018-03-27T14:04:55.806Z,20.70
2018-03-27T14:07:29.413Z,23.17
2018-03-27T14:10:03.017Z,22.58
2018-03-27T14:12:36.589Z,25.95
2018-03-27T14:15:10.915Z,24.98
2018-03-27T14:17:44.587Z,30.15
2018-03-27T14:20:18.923Z,23.62
2018-03-27T14:22:52.735Z,33.67
2018-03-27T14:25:26.371Z,20.42
2018-03-27T14:27:59.949Z,15.50
2018-03-27T14:30:33.458Z,22.20
2018-03-27T14:33:07.152Z,16.67
2018-03-27T14:35:40.744Z,18.40
2018-03-27T14:38:14.366Z,19.12
2018-03-27T14:40:48.669Z,19.20
2018-03-27T14:43:22.378Z,20.70
2018-03-27T14:45:55.887Z,19.67
2018-03-27T14:48:29.570Z,17.83
2018-03-27T14:51:03.098Z,19.42
2018-03-27T14:53:36.695Z,26.45
2018-03-27T14:56:10.241Z,20.70
2018-03-27T14:58:43.795Z,21.67
2018-03-27T15:01:17.467Z,19.17
2018-03-27T15:03:51.187Z,21.65
2018-03-27T15:06:24.776Z,19.80
2018-03-27T15:08:58.348Z,34.70
2018-03-27T15:11:32.717Z,19.05
2018-03-27T15:14:06.448Z,20.62
2018-03-27T15:16:40.002Z,43.15
2018-03-27T15:19:13.513Z,38.30
2018-03-27T15:21:47.134Z,34.28
2018-03-27T15:24:20.777Z,21.80
2018-03-27T15:26:54.413Z,21.40
2018-03-27T15:29:28.136Z,15.95
2018-03-27T15:32:01.693Z,16.90
2018-03-27T15:34:35.280Z,18.40
2018-03-27T15:37:08.821Z,15.52
2018-03-27T15:39:42.480Z,26.83
2018-03-27T15:42:15.939Z,20.40
2018-03-27T15:44:49.538Z,18.42
2018-03-27T15:47:23.099Z,27.58
2018-03-27T15:49:57.536Z,21.83
2018-03-27T15:52:31.114Z,17.98
2018-03-27T15:55:04.638Z,16.75
2018-03-27T15:57:38.150Z,16.27
2018-03-27T16:00:11.710Z,22.60
2018-03-27T16:02:45.444Z,18.67
2018-03-27T16:05:19.014Z,20.30
2018-03-27T16:07:52.614Z,20.00
2018-03-27T16:10:26.226Z,21.08
2018-03-27T16:12:59.812Z,19.30
2018-03-27T16:15:33.417Z,18.35
2018-03-27T16:18:07.021Z,21.83
2018-03-27T16:20:40.655Z,28.27
2018-03-27T16:23:14.233Z,36.83
2018-03-27T16:25:47.818Z,27.05
2018-03-27T16:28:21.424Z,21.37
2018-03-27T16:30:54.998Z,22.62
2018-03-27T16:33:28.494Z,18.35
2018-03-27T16:36:02.044Z,18.70
2018-03-27T16:38:35.630Z,21.37
2018-03-27T16:41:09.226Z,17.25
2018-03-27T16:43:42.758Z,16.35
2018-03-27T16:46:16.324Z,25.17
2018-03-27T16:48:49.985Z,18.02
2018-03-27T16:51:23.511Z,16.50
2018-03-27T16:53:57.844Z,20.50
2018-03-27T16:56:31.533Z,21.87
2018-03-27T16:59:05.250Z,22.15
2018-03-27T17:01:38.762Z,18.37
2018-03-27T17:04:13.076Z,19.05
2018-03-27T17:06:46.797Z,17.65
2018-03-27T17:09:23.187Z,15.65
2018-03-27T17:11:56.838Z,18.30
2018-03-27T17:14:30.432Z,17.48
2018-03-27T17:17:04.179Z,16.67
2018-03-27T17:19:37.719Z,16.27
2018-03-27T17:22:12.263Z,19.35
2018-03-27T17:24:46.014Z,18.12
2018-03-27T17:27:19.560Z,34.28
2018-03-27T17:29:53.887Z,30.62
2018-03-27T17:32:27.574Z,21.90
2018-03-27T17:35:01.190Z,26.87
2018-03-27T17:37:34.690Z,33.47
2018-03-27T17:40:09.007Z,34.25
2018-03-27T17:42:42.737Z,26.17
2018-03-27T17:45:16.400Z,25.85
2018-03-27T17:47:49.921Z,17.75
2018-03-27T17:50:23.644Z,14.50
2018-03-27T17:52:57.193Z,17.87
2018-03-27T17:55:31.527Z,19.00
2018-03-27T17:58:05.050Z,24.25
2018-03-27T18:00:39.347Z,30.08
2018-03-27T18:03:13.128Z,21.80
2018-03-27T18:05:46.803Z,24.80
2018-03-27T18:08:20.719Z,32.20
2018-03-27T18:10:54.975Z,26.52
2018-03-27T18:13:28.483Z,30.52
2018-03-27T18:16:02.062Z,27.65
2018-03-27T18:18:35.620Z,18.58
2018-03-27T18:21:09.281Z,24.92
2018-03-27T18:23:42.892Z,15.95
2018-03-27T18:26:16.530Z,48.45
2018-03-27T18:28:50.119Z,48.22
2018-03-27T18:31:23.695Z,37.15
2018-03-27T18:33:57.267Z,43.60
2018-03-27T18:36:31.599Z,45.00
2018-03-27T18:39:05.209Z,24.60
2018-03-27T18:41:38.791Z,29.90
2018-03-27T18:44:13.277Z,27.98
2018-03-27T18:46:46.856Z,24.75
2018-03-27T18:49:20.414Z,30.42
2018-03-27T18:51:53.933Z,31.27
2018-03-27T18:54:27.506Z,32.20
2018-03-27T18:57:01.844Z,35.30
2018-03-27T18:59:36.213Z,29.23
2018-03-27T19:02:09.866Z,35.17
2018-03-27T19:04:43.398Z,27.13
2018-03-27T19:07:16.939Z,30.67
2018-03-27T19:09:50.555Z,26.65
2018-03-27T19:12:27.218Z,28.50
2018-03-27T19:15:01.582Z,37.00
2018-03-27T19:17:35.279Z,28.55
2018-03-27T19:20:09.781Z,35.25
2018-03-27T19:22:43.557Z,26.95
2018-03-27T19:25:17.123Z,158.60
2018-03-27T19:27:50.794Z,75.93
2018-03-27T19:30:31.896Z,56.05
2018-03-27T19:33:06.174Z,30.70
2018-03-27T19:35:39.879Z,28.58
2018-03-27T19:38:13.461Z,26.73
2018-03-27T19:40:46.982Z,27.58
2018-03-27T19:43:20.607Z,29.20
2018-03-27T19:45:54.170Z,23.85
2018-03-27T19:48:27.896Z,33.55
2018-03-27T19:51:01.504Z,28.80
2018-03-27T19:53:35.142Z,34.95
2018-03-27T19:56:08.690Z,26.65
2018-03-27T19:58:43.001Z,31.80
2018-03-27T20:01:17.536Z,29.15
2018-03-27T20:03:51.126Z,19.62
2018-03-27T20:06:24.690Z,25.85
2018-03-27T20:08:59.047Z,26.65
2018-03-27T20:11:32.758Z,21.42
2018-03-27T20:14:06.342Z,27.23
2018-03-27T20:16:39.852Z,33.22
2018-03-27T20:19:13.444Z,23.42
2018-03-27T20:21:47.024Z,24.85
2018-03-27T20:24:20.641Z,30.00
2018-03-27T20:26:54.155Z,28.98
2018-03-27T20:29:27.731Z,34.22
2018-03-27T20:32:01.406Z,25.00
2018-03-27T20:34:35.018Z,25.00
2018-03-27T20:37:08.709Z,26.62
2018-03-27T20:39:42.479Z,27.70
2018-03-27T20:42:16.262Z,21.55
2018-03-27T20:44:49.980Z,24.30
2018-03-27T20:47:23.692Z,23.05
2018-03-27T20:49:57.982Z,24.73
2018-03-27T20:52:32.415Z,23.30
2018-03-27T20:55:06.125Z,20.92
2018-03-27T20:57:39.703Z,19.80
2018-03-27T21:00:13.314Z,23.25
2018-03-27T21:02:46.917Z,21.62
2018-03-27T21:05:20.490Z,13.57
2018-03-27T21:07:54.097Z,18.95
2018-03-27T21:10:28.413Z,22.27
2018-03-27T21:13:02.091Z,18.35
2018-03-27T21:15:36.658Z,16.65
2018-03-27T21:18:10.144Z,14.82
2018-03-27T21:20:43.650Z,13.88
2018-03-27T21:23:17.378Z,13.10
2018-03-27T21:25:50.958Z,44.22
2018-03-27T21:28:24.519Z,56.58
2018-03-27T21:30:58.832Z,21.85
2018-03-27T21:33:32.566Z,16.65
2018-03-27T21:36:06.161Z,16.55
2018-03-27T21:38:39.757Z,16.12
2018-03-27T21:41:13.354Z,16.05
2018-03-27T21:43:46.935Z,18.25
2018-03-27T21:46:20.745Z,13.35
2018-03-27T21:48:54.283Z,12.07
2018-03-27T21:51:27.897Z,16.12
2018-03-27T21:54:01.494Z,14.23
2018-03-27T21:56:35.060Z,13.27
2018-03-27T21:59:08.640Z,16.75
2018-03-27T22:01:42.221Z,15.77
2018-03-27T22:04:15.778Z,11.60
2018-03-27T22:06:50.311Z,13.60
2018-03-27T22:09:24.025Z,18.37
2018-03-27T22:11:58.500Z,18.02
2018-03-27T22:14:32.336Z,15.70
2018-03-27T22:17:06.077Z,17.10
2018-03-27T22:19:39.627Z,15.65
2018-03-27T22:22:13.379Z,15.85
2018-03-27T22:24:46.929Z,19.35
2018-03-27T22:27:20.511Z,20.52
2018-03-27T22:29:54.123Z,51.25
2018-03-27T22:32:27.658Z,32.80
2018-03-27T22:35:01.202Z,20.02
2018-03-27T22:37:34.950Z,17.75
2018-03-27T22:40:08.461Z,16.45
2018-03-27T22:42:42.027Z,19.25
2018-03-27T22:45:15.562Z,18.02
2018-03-27T22:47:49.268Z,21.05
2018-03-27T22:50:23.900Z,21.42
2018-03-27T22:52:57.489Z,17.08
2018-03-27T22:55:31.191Z,15.73
2018-03-27T22:58:05.673Z,21.42
2018-03-27T23:00:39.474Z,17.95
2018-03-27T23:03:12.985Z,20.83
2018-03-27T23:05:47.296Z,13.52
2018-03-27T23:08:21.021Z,12.00
2018-03-27T23:10:54.578Z,12.40
2018-03-27T23:13:29.176Z,13.55
2018-03-27T23:16:02.734Z,16.77
2018-03-27T23:18:36.238Z,20.33
2018-03-27T23:21:09.797Z,16.17
2018-03-27T23:23:43.432Z,19.23
2018-03-27T23:26:16.941Z,18.08
2018-03-27T23:28:50.434Z,19.25
2018-03-27T23:31:24.047Z,54.42
2018-03-27T23:33:57.593Z,33.83
2018-03-27T23:36:31.917Z,19.62
2018-03-27T23:39:06.368Z,25.85
2018-03-27T23:41:40.681Z,14.40
2018-03-27T23:44:15.146Z,18.05
2018-03-27T23:46:48.801Z,15.75
2018-03-27T23:49:23.155Z,18.02
2018-03-27T23:51:56.930Z,18.58
2018-03-27T23:54:30.498Z,19.90
2018-03-27T23:57:05.014Z,19.83
2018-03-27T23:59:38.513Z,18.05
